createdAt,value
2023-05-21T00:01:27.494Z,44.12
2023-05-21T00:03:54.648Z,44.33
2023-05-21T00:06:21.937Z,44.27
2023-05-21T00:08:49.070Z,44.45
2023-05-21T00:11:16.429Z,43.96
2023-05-21T00:13:44.909Z,44.04
2023-05-21T00:16:12.064Z,43.95
2023-05-21T00:18:39.212Z,44.37
2023-05-21T00:21:06.399Z,44.39
2023-05-21T00:23:33.524Z,44.46
2023-05-21T00:26:00.680Z,44.34
2023-05-21T00:28:27.798Z,44.49
2023-05-21T00:30:56.251Z,44.48
2023-05-21T00:33:23.823Z,44.57
2023-05-21T00:35:50.929Z,44.70
2023-05-21T00:38:18.036Z,44.48
2023-05-21T00:40:45.155Z,44.63
2023-05-21T00:43:12.533Z,44.53
2023-05-21T00:45:40.871Z,44.13
2023-05-21T00:48:09.397Z,44.08
2023-05-21T00:50:36.845Z,44.45
2023-05-21T00:53:03.961Z,44.44
2023-05-21T00:55:31.113Z,44.22
2023-05-21T00:57:58.295Z,44.45
2023-05-21T01:00:25.907Z,44.30
2023-05-21T01:03:14.059Z,44.54
2023-05-21T01:05:41.994Z,44.00
2023-05-21T01:08:09.157Z,44.46
2023-05-21T01:10:36.399Z,44.62
2023-05-21T01:13:03.549Z,44.83
2023-05-21T01:15:30.785Z,44.60
2023-05-21T01:17:58.248Z,44.48
2023-05-21T01:20:29.061Z,44.94
2023-05-21T01:22:57.893Z,44.69
2023-05-21T01:25:25.149Z,44.42
2023-05-21T01:27:52.303Z,44.37
2023-05-21T01:30:22.072Z,44.28
2023-05-21T01:32:57.534Z,44.17
2023-05-21T01:35:28.075Z,44.21
2023-05-21T01:38:03.163Z,44.53
2023-05-21T01:40:35.796Z,44.23
2023-05-21T01:43:03.722Z,44.42
2023-05-21T01:45:33.247Z,44.47
2023-05-21T01:48:01.127Z,44.39
2023-05-21T01:50:29.648Z,44.39
2023-05-21T01:52:58.128Z,44.24
2023-05-21T01:55:25.311Z,44.60
2023-05-21T01:57:52.688Z,44.72
2023-05-21T02:00:20.813Z,44.84
2023-05-21T02:02:48.052Z,44.54
2023-05-21T02:05:15.533Z,44.98
2023-05-21T02:07:42.690Z,44.72
2023-05-21T02:10:11.918Z,45.02
2023-05-21T02:12:39.425Z,44.60
2023-05-21T02:15:07.526Z,44.88
2023-05-21T02:17:34.959Z,44.56
2023-05-21T02:20:02.763Z,44.72
2023-05-21T02:22:29.861Z,44.71
2023-05-21T02:24:56.979Z,44.59
2023-05-21T02:27:25.442Z,44.78
2023-05-21T02:29:52.538Z,44.50
2023-05-21T02:32:19.659Z,44.72
2023-05-21T02:34:46.753Z,44.72
2023-05-21T02:37:13.958Z,44.73
2023-05-21T02:39:41.098Z,44.90
2023-05-21T02:42:08.212Z,45.16
2023-05-21T02:44:36.673Z,45.05
2023-05-21T02:47:03.906Z,45.03
2023-05-21T02:49:30.987Z,44.87
2023-05-21T02:51:58.082Z,44.90
2023-05-21T02:54:25.232Z,44.82
2023-05-21T02:56:52.333Z,44.96
2023-05-21T02:59:19.429Z,44.77
2023-05-21T03:01:47.944Z,44.54
2023-05-21T03:04:15.145Z,44.65
2023-05-21T03:06:42.247Z,44.82
2023-05-21T03:09:09.370Z,44.89
2023-05-21T03:11:36.623Z,44.88
2023-05-21T03:14:03.771Z,44.79
2023-05-21T03:16:30.997Z,44.81
2023-05-21T03:18:59.538Z,44.92
2023-05-21T03:21:26.755Z,44.73
2023-05-21T03:23:53.875Z,44.97
2023-05-21T03:26:20.983Z,45.11
2023-05-21T03:28:48.076Z,45.19
2023-05-21T03:31:15.213Z,44.88
2023-05-21T03:33:42.402Z,45.14
2023-05-21T03:36:10.884Z,45.00
2023-05-21T03:38:38.079Z,44.99
2023-05-21T03:41:06.115Z,45.10
2023-05-21T03:43:33.237Z,44.82
2023-05-21T03:46:00.399Z,44.92
2023-05-21T03:48:27.580Z,44.81
2023-05-21T03:50:54.688Z,45.04
2023-05-21T03:53:23.376Z,44.67
2023-05-21T03:55:50.677Z,44.52
2023-05-21T03:58:17.783Z,44.55
2023-05-21T04:00:44.900Z,44.55
2023-05-21T04:03:12.256Z,44.54
2023-05-21T04:05:39.522Z,44.83
2023-05-21T04:08:06.666Z,44.74
2023-05-21T04:10:35.410Z,44.78
2023-05-21T04:13:02.731Z,45.12
2023-05-21T04:15:29.855Z,44.78
2023-05-21T04:17:57.154Z,44.89
2023-05-21T04:20:24.296Z,44.93
2023-05-21T04:22:51.473Z,45.30
2023-05-21T04:25:18.567Z,44.89
2023-05-21T04:27:47.018Z,44.92
2023-05-21T04:30:14.175Z,44.84
2023-05-21T04:32:41.477Z,45.00
2023-05-21T04:35:09.081Z,44.72
2023-05-21T04:37:36.211Z,44.98
2023-05-21T04:40:03.857Z,45.01
2023-05-21T04:42:30.966Z,44.70
2023-05-21T04:44:59.583Z,44.69
2023-05-21T04:47:26.758Z,45.02
2023-05-21T04:49:53.885Z,45.09
2023-05-21T04:52:21.036Z,45.61
2023-05-21T04:54:48.156Z,45.43
2023-05-21T04:57:15.240Z,45.24
2023-05-21T04:59:42.397Z,45.30
2023-05-21T05:02:10.867Z,45.29
2023-05-21T05:04:38.000Z,45.54
2023-05-21T05:07:05.256Z,45.35
2023-05-21T05:09:32.366Z,45.33
2023-05-21T05:11:59.503Z,45.22
2023-05-21T05:14:26.679Z,45.08
2023-05-21T05:16:53.832Z,45.98
2023-05-21T05:19:22.354Z,45.22
2023-05-21T05:21:49.614Z,45.30
2023-05-21T05:24:16.795Z,44.81
2023-05-21T05:26:44.070Z,44.78
2023-05-21T05:29:11.266Z,45.09
2023-05-21T05:31:38.405Z,44.90
2023-05-21T05:34:05.658Z,45.02
2023-05-21T05:36:34.128Z,45.29
2023-05-21T05:39:01.238Z,46.25
2023-05-21T05:41:28.346Z,45.96
2023-05-21T05:43:55.468Z,46.08
2023-05-21T05:46:22.782Z,45.81
2023-05-21T05:48:49.932Z,45.84
2023-05-21T05:51:17.067Z,45.58
2023-05-21T05:53:45.533Z,46.21
2023-05-21T05:56:12.639Z,45.83
2023-05-21T05:58:39.794Z,45.72
2023-05-21T06:01:06.909Z,45.43
2023-05-21T06:03:34.169Z,46.09
2023-05-21T06:06:01.500Z,46.21
2023-05-21T06:08:28.616Z,46.39
2023-05-21T06:10:57.070Z,46.44
2023-05-21T06:13:24.210Z,46.41
2023-05-21T06:15:51.393Z,47.64
2023-05-21T06:18:18.532Z,47.49
2023-05-21T06:20:45.682Z,47.48
2023-05-21T06:23:12.823Z,47.21
2023-05-21T06:25:40.144Z,47.42
2023-05-21T06:28:08.777Z,47.76
2023-05-21T06:30:35.929Z,46.78
2023-05-21T06:33:03.251Z,46.60
2023-05-21T06:35:30.483Z,46.41
2023-05-21T06:37:57.617Z,46.11
2023-05-21T06:40:24.730Z,46.21
2023-05-21T06:42:51.906Z,45.78
2023-05-21T06:45:20.643Z,45.44
2023-05-21T06:47:47.766Z,45.57
2023-05-21T06:50:14.929Z,45.48
2023-05-21T06:52:42.126Z,45.37
2023-05-21T06:55:09.716Z,45.38
2023-05-21T06:57:37.689Z,45.22
2023-05-21T07:00:05.771Z,45.24
2023-05-21T07:02:34.343Z,45.36
2023-05-21T07:05:01.571Z,45.04
2023-05-21T07:07:28.680Z,45.31
2023-05-21T07:09:55.791Z,45.19
2023-05-21T07:12:22.932Z,45.40
2023-05-21T07:14:50.039Z,45.36
2023-05-21T07:17:17.137Z,45.58
2023-05-21T07:19:45.589Z,45.41
2023-05-21T07:22:12.701Z,45.44
2023-05-21T07:24:39.933Z,45.00
2023-05-21T07:27:17.736Z,45.09
2023-05-21T07:29:51.619Z,45.19
2023-05-21T07:32:18.829Z,45.29
2023-05-21T07:34:47.339Z,44.85
2023-05-21T07:37:14.555Z,44.79
2023-05-21T07:39:41.723Z,44.93
2023-05-21T07:42:08.855Z,44.67
2023-05-21T07:44:35.968Z,44.82
2023-05-21T07:47:03.286Z,44.69
2023-05-21T07:49:30.409Z,44.69
2023-05-21T07:51:58.911Z,44.92
2023-05-21T07:54:26.044Z,44.64
2023-05-21T07:56:53.149Z,44.96
2023-05-21T07:59:20.282Z,44.97
2023-05-21T08:01:47.435Z,44.94
2023-05-21T08:04:14.799Z,44.84
2023-05-21T08:06:42.033Z,45.08
2023-05-21T08:09:10.516Z,44.61
2023-05-21T08:11:37.704Z,45.09
2023-05-21T08:14:04.825Z,44.70
2023-05-21T08:16:32.012Z,44.50
2023-05-21T08:18:59.251Z,44.52
2023-05-21T08:21:26.381Z,44.92
2023-05-21T08:23:53.515Z,44.62
2023-05-21T08:26:22.038Z,44.63
2023-05-21T08:28:49.165Z,44.78
2023-05-21T08:31:18.190Z,44.69
2023-05-21T08:33:50.748Z,44.66
2023-05-21T08:36:18.002Z,44.87
2023-05-21T08:38:45.172Z,44.71
2023-05-21T08:41:12.745Z,44.57
2023-05-21T08:43:42.177Z,44.87
2023-05-21T08:46:09.834Z,44.68
2023-05-21T08:48:37.731Z,44.68
2023-05-21T08:51:05.731Z,45.08
2023-05-21T08:53:33.387Z,44.60
2023-05-21T08:56:01.863Z,44.71
2023-05-21T08:58:32.232Z,44.54
2023-05-21T09:01:00.916Z,44.48
2023-05-21T09:03:29.150Z,44.72
2023-05-21T09:05:57.378Z,44.40
2023-05-21T09:08:29.597Z,44.20
2023-05-21T09:10:56.720Z,44.52
2023-05-21T09:13:26.788Z,44.35
2023-05-21T09:15:53.959Z,44.30
2023-05-21T09:18:22.448Z,44.43
2023-05-21T09:20:49.587Z,44.42
2023-05-21T09:23:17.878Z,44.30
2023-05-21T09:25:46.255Z,44.64
2023-05-21T09:28:14.508Z,44.46
2023-05-21T09:30:45.383Z,44.69
2023-05-21T09:33:12.961Z,44.74
2023-05-21T09:35:47.637Z,44.68
2023-05-21T09:38:14.789Z,44.58
2023-05-21T09:40:44.697Z,44.22
2023-05-21T09:43:14.381Z,44.24
2023-05-21T09:45:51.352Z,44.42
2023-05-21T09:48:33.087Z,44.12
2023-05-21T09:51:09.880Z,44.15
2023-05-21T09:53:37.025Z,44.03
2023-05-21T09:56:05.042Z,44.13
2023-05-21T09:58:34.057Z,44.23
2023-05-21T10:01:01.283Z,44.16
2023-05-21T10:03:31.256Z,44.29
2023-05-21T10:05:59.758Z,44.09
2023-05-21T10:08:35.386Z,44.26
2023-05-21T10:11:04.567Z,44.06
2023-05-21T10:13:34.093Z,44.01
2023-05-21T10:16:02.050Z,44.42
2023-05-21T10:18:30.693Z,44.37
2023-05-21T10:20:59.920Z,44.29
2023-05-21T10:23:29.946Z,44.20
2023-05-21T10:25:58.468Z,44.15
2023-05-21T10:28:25.743Z,44.27
2023-05-21T10:30:53.169Z,45.36
2023-05-21T10:33:22.916Z,46.13
2023-05-21T10:35:53.082Z,46.10
2023-05-21T10:38:20.665Z,46.85
2023-05-21T10:40:49.372Z,51.97
2023-05-21T10:43:38.863Z,51.65
2023-05-21T10:46:32.981Z,50.55
2023-05-21T10:49:17.108Z,50.37
2023-05-21T10:51:54.605Z,52.65
2023-05-21T10:54:51.194Z,52.60
2023-05-21T10:57:36.075Z,48.08
2023-05-21T11:00:04.084Z,44.53
2023-05-21T11:02:31.760Z,43.85
2023-05-21T11:04:59.772Z,42.82
2023-05-21T11:07:51.274Z,41.83
2023-05-21T11:10:31.813Z,45.64
2023-05-21T11:13:07.691Z,42.13
2023-05-21T11:16:06.713Z,40.62
2023-05-21T11:18:58.928Z,41.48
2023-05-21T11:21:29.412Z,40.97
2023-05-21T11:24:00.246Z,40.90
2023-05-21T11:26:28.477Z,40.57
2023-05-21T11:29:08.177Z,40.88
2023-05-21T11:31:36.240Z,40.98
2023-05-21T11:34:12.344Z,40.89
2023-05-21T11:36:40.349Z,41.07
2023-05-21T11:39:11.234Z,41.00
2023-05-21T11:41:51.923Z,40.52
2023-05-21T11:44:37.555Z,41.32
2023-05-21T11:47:05.381Z,40.78
2023-05-21T11:49:33.512Z,41.45
2023-05-21T11:52:01.343Z,40.60
2023-05-21T11:54:29.041Z,41.20
2023-05-21T11:56:56.465Z,40.94
2023-05-21T11:59:25.772Z,40.45
2023-05-21T12:01:53.755Z,40.09
2023-05-21T12:04:20.908Z,40.48
2023-05-21T12:06:48.028Z,40.09
2023-05-21T12:09:15.154Z,40.85
2023-05-21T12:11:42.353Z,43.13
2023-05-21T12:14:10.385Z,41.82
2023-05-21T12:16:39.189Z,41.62
2023-05-21T12:19:06.815Z,41.92
2023-05-21T12:21:35.142Z,42.69
2023-05-21T12:24:02.537Z,42.87
2023-05-21T12:26:30.268Z,42.86
2023-05-21T12:28:57.545Z,42.82
2023-05-21T12:31:24.709Z,42.78
2023-05-21T12:33:53.696Z,42.88
2023-05-21T12:36:27.287Z,42.71
2023-05-21T12:38:54.867Z,42.66
2023-05-21T12:41:22.298Z,42.80
2023-05-21T12:43:50.760Z,42.80
2023-05-21T12:46:18.139Z,42.97
2023-05-21T12:48:54.920Z,42.87
2023-05-21T12:51:22.055Z,42.98
2023-05-21T12:53:49.249Z,42.61
2023-05-21T12:56:16.530Z,42.92
2023-05-21T12:58:50.027Z,42.79
2023-05-21T13:01:17.189Z,42.74
2023-05-21T13:03:45.149Z,42.95
2023-05-21T13:06:13.624Z,42.95
2023-05-21T13:08:40.761Z,43.18
2023-05-21T13:11:07.872Z,43.52
2023-05-21T13:13:35.076Z,43.68
2023-05-21T13:16:02.309Z,42.91
2023-05-21T13:18:29.490Z,39.80
2023-05-21T13:20:56.938Z,38.74
2023-05-21T13:23:25.397Z,38.89
2023-05-21T13:25:52.592Z,39.25
2023-05-21T13:28:19.706Z,39.29
2023-05-21T13:30:46.864Z,39.29
2023-05-21T13:33:14.106Z,40.26
2023-05-21T13:35:41.323Z,40.49
2023-05-21T13:38:08.448Z,40.12
2023-05-21T13:40:38.966Z,39.32
2023-05-21T13:43:06.353Z,40.56
2023-05-21T13:45:33.592Z,39.85
2023-05-21T13:48:00.780Z,39.32
2023-05-21T13:50:28.032Z,39.90
2023-05-21T13:52:55.267Z,40.41
2023-05-21T13:55:22.639Z,40.15
2023-05-21T13:57:51.155Z,38.79
2023-05-21T14:00:18.375Z,38.96
2023-05-21T14:02:45.664Z,38.72
2023-05-21T14:05:13.040Z,38.05
2023-05-21T14:07:40.353Z,37.77
2023-05-21T14:10:08.642Z,37.97
2023-05-21T14:12:35.824Z,38.42
2023-05-21T14:15:05.272Z,36.76
2023-05-21T14:17:32.441Z,36.73
2023-05-21T14:19:59.593Z,36.93
2023-05-21T14:22:26.721Z,36.95
2023-05-21T14:24:53.914Z,36.93
2023-05-21T14:27:21.030Z,36.23
2023-05-21T14:29:48.156Z,35.89
2023-05-21T14:32:16.725Z,35.25
2023-05-21T14:34:44.110Z,35.40
2023-05-21T14:37:11.278Z,36.24
2023-05-21T14:39:38.413Z,35.75
2023-05-21T14:42:05.691Z,35.34
2023-05-21T14:44:32.869Z,36.21
2023-05-21T14:47:00.038Z,36.47
2023-05-21T14:49:28.493Z,36.84
2023-05-21T14:51:55.683Z,35.87
2023-05-21T14:54:22.789Z,34.97
2023-05-21T14:56:49.930Z,35.80
2023-05-21T14:59:17.102Z,35.69
2023-05-21T15:01:44.289Z,36.13
2023-05-21T15:04:11.566Z,36.56
2023-05-21T15:06:40.117Z,36.53
2023-05-21T15:09:07.250Z,36.03
2023-05-21T15:11:34.350Z,37.14
2023-05-21T15:14:01.503Z,36.95
2023-05-21T15:16:28.660Z,36.84
2023-05-21T15:18:55.890Z,36.49
2023-05-21T15:21:23.493Z,36.83
2023-05-21T15:23:52.865Z,37.13
2023-05-21T15:26:20.019Z,37.46
2023-05-21T15:28:47.300Z,37.48
2023-05-21T15:31:14.427Z,36.94
2023-05-21T15:33:41.540Z,36.26
2023-05-21T15:36:09.210Z,36.39
2023-05-21T15:38:36.323Z,36.44
2023-05-21T15:41:05.506Z,37.04
2023-05-21T15:43:33.103Z,36.89
2023-05-21T15:46:00.333Z,37.02
2023-05-21T15:48:27.473Z,36.68
2023-05-21T15:50:54.630Z,36.29
2023-05-21T15:53:21.742Z,36.06
2023-05-21T15:55:48.836Z,35.68
2023-05-21T15:58:17.478Z,35.62
2023-05-21T16:00:44.614Z,36.51
2023-05-21T16:03:12.124Z,36.13
2023-05-21T16:05:39.474Z,36.38
2023-05-21T16:08:06.671Z,36.52
2023-05-21T16:10:33.809Z,35.36
2023-05-21T16:13:00.985Z,36.06
2023-05-21T16:15:29.472Z,36.63
2023-05-21T16:17:56.649Z,36.87
2023-05-21T16:20:23.852Z,36.65
2023-05-21T16:22:50.981Z,36.21
2023-05-21T16:25:18.146Z,36.56
2023-05-21T16:27:45.294Z,36.52
2023-05-21T16:30:14.226Z,36.53
2023-05-21T16:32:42.841Z,36.23
2023-05-21T16:35:10.063Z,36.79
2023-05-21T16:37:37.190Z,37.49
2023-05-21T16:40:05.336Z,37.76
2023-05-21T16:42:32.474Z,37.31
2023-05-21T16:44:59.605Z,37.12
2023-05-21T16:47:26.769Z,38.20
2023-05-21T16:49:55.311Z,38.10
2023-05-21T16:52:23.162Z,37.74
2023-05-21T16:54:50.357Z,38.24
2023-05-21T16:57:17.534Z,38.10
2023-05-21T16:59:44.684Z,38.30
2023-05-21T17:02:12.448Z,37.77
2023-05-21T17:04:39.668Z,38.25
2023-05-21T17:07:08.132Z,37.91
2023-05-21T17:09:35.243Z,38.43
2023-05-21T17:12:02.447Z,38.67
2023-05-21T17:16:59.616Z,39.04
2023-05-21T17:19:26.829Z,39.90
2023-05-21T17:21:54.485Z,39.50
2023-05-21T17:24:23.064Z,39.96
2023-05-21T17:26:50.221Z,39.45
2023-05-21T17:29:17.363Z,39.66
2023-05-21T17:31:44.592Z,39.89
2023-05-21T17:34:11.855Z,41.17
2023-05-21T17:36:38.952Z,41.18
2023-05-21T17:39:06.058Z,41.21
2023-05-21T17:41:34.586Z,41.39
2023-05-21T17:44:01.814Z,40.94
2023-05-21T17:46:29.005Z,40.92
2023-05-21T17:48:56.147Z,41.21
2023-05-21T17:51:23.260Z,41.44
2023-05-21T17:53:50.393Z,41.17
2023-05-21T17:56:17.534Z,41.18
2023-05-21T17:58:46.016Z,41.50
2023-05-21T18:01:13.172Z,41.21
2023-05-21T18:03:40.396Z,41.30
2023-05-21T18:06:09.386Z,41.55
2023-05-21T18:08:36.811Z,41.42
2023-05-21T18:11:04.081Z,41.54
2023-05-21T18:13:31.368Z,41.65
2023-05-21T18:15:59.826Z,41.50
2023-05-21T18:18:26.982Z,42.65
2023-05-21T18:20:54.102Z,41.86
2023-05-21T18:23:21.360Z,39.45
2023-05-21T18:25:48.709Z,38.38
2023-05-21T18:28:15.827Z,38.70
2023-05-21T18:30:42.945Z,39.13
2023-05-21T18:33:11.522Z,39.55
2023-05-21T18:35:38.666Z,39.70
2023-05-21T18:38:05.794Z,39.51
2023-05-21T18:40:32.923Z,39.97
2023-05-21T18:43:00.020Z,40.15
2023-05-21T18:45:27.553Z,40.72
2023-05-21T18:47:54.710Z,40.65
2023-05-21T18:50:23.239Z,41.39
2023-05-21T18:52:51.602Z,41.66
2023-05-21T18:55:19.065Z,41.66
2023-05-21T18:57:46.392Z,41.45
2023-05-21T19:00:14.350Z,41.84
2023-05-21T19:02:41.604Z,42.13
2023-05-21T19:05:09.721Z,42.18
2023-05-21T19:07:38.228Z,42.56
2023-05-21T19:10:06.335Z,42.66
2023-05-21T19:12:33.782Z,42.13
2023-05-21T19:15:00.891Z,42.32
2023-05-21T19:17:28.098Z,42.58
2023-05-21T19:19:55.274Z,42.60
2023-05-21T19:22:23.099Z,42.84
2023-05-21T19:24:52.136Z,42.83
2023-05-21T19:27:20.155Z,42.67
2023-05-21T19:29:48.017Z,42.70
2023-05-21T19:32:15.915Z,43.16
2023-05-21T19:34:43.121Z,42.87
2023-05-21T19:37:10.272Z,42.46
2023-05-21T19:39:38.426Z,42.30
2023-05-21T19:42:07.471Z,42.16
2023-05-21T19:44:34.813Z,42.20
2023-05-21T19:47:02.250Z,42.72
2023-05-21T19:49:29.408Z,42.35
2023-05-21T19:51:56.606Z,42.32
2023-05-21T19:54:24.065Z,42.20
2023-05-21T19:56:51.403Z,42.29
2023-05-21T19:59:19.888Z,42.21
2023-05-21T20:01:47.108Z,42.93
2023-05-21T20:04:14.300Z,42.84
2023-05-21T20:06:41.498Z,42.24
2023-05-21T20:09:08.811Z,42.45
2023-05-21T20:11:36.048Z,42.44
2023-05-21T20:14:03.197Z,42.20
2023-05-21T20:16:31.705Z,41.99
2023-05-21T20:18:58.925Z,41.78
2023-05-21T20:21:26.096Z,41.61
2023-05-21T20:23:53.516Z,41.72
2023-05-21T20:26:21.985Z,41.79
2023-05-21T20:28:49.113Z,41.85
2023-05-21T20:31:16.314Z,41.85
2023-05-21T20:33:44.812Z,42.10
2023-05-21T20:36:12.038Z,41.91
2023-05-21T20:38:39.186Z,41.75
2023-05-21T20:41:06.313Z,41.63
2023-05-21T20:43:33.424Z,41.32
2023-05-21T20:46:00.586Z,41.24
2023-05-21T20:48:29.297Z,41.12
2023-05-21T20:50:57.814Z,41.44
2023-05-21T20:53:25.442Z,41.18
2023-05-21T20:55:52.742Z,41.18
2023-05-21T20:58:20.272Z,41.57
2023-05-21T21:00:47.485Z,41.57
2023-05-21T21:03:14.792Z,41.53
2023-05-21T21:05:41.944Z,41.69
2023-05-21T21:08:10.666Z,41.64
2023-05-21T21:10:38.350Z,41.74
2023-05-21T21:13:05.723Z,41.93
2023-05-21T21:15:32.926Z,42.17
2023-05-21T21:18:00.089Z,42.31
2023-05-21T21:20:27.445Z,42.36
2023-05-21T21:22:54.617Z,42.15
2023-05-21T21:25:23.118Z,42.11
2023-05-21T21:27:50.256Z,42.03
2023-05-21T21:30:17.500Z,42.22
2023-05-21T21:32:45.341Z,42.01
2023-05-21T21:35:12.489Z,42.09
2023-05-21T21:37:39.765Z,42.02
2023-05-21T21:40:08.234Z,42.06
2023-05-21T21:42:36.767Z,42.16
2023-05-21T21:45:04.748Z,41.95
2023-05-21T21:47:31.896Z,42.08
2023-05-21T21:49:59.260Z,42.24
2023-05-21T21:52:26.555Z,42.09
2023-05-21T21:54:53.861Z,42.29
2023-05-21T21:57:21.262Z,42.49
2023-05-21T21:59:50.022Z,42.36
2023-05-21T22:02:17.236Z,42.45
2023-05-21T22:04:44.475Z,42.49
2023-05-21T22:07:11.797Z,42.42
2023-05-21T22:09:38.903Z,42.67
2023-05-21T22:12:06.712Z,42.65
2023-05-21T22:14:33.877Z,42.61
2023-05-21T22:17:02.408Z,42.46
2023-05-21T22:19:29.613Z,42.60
2023-05-21T22:21:56.880Z,42.54
2023-05-21T22:24:32.094Z,42.63
2023-05-21T22:27:00.621Z,42.51
2023-05-21T22:29:27.799Z,42.62
2023-05-21T22:31:55.119Z,42.49
2023-05-21T22:34:23.640Z,42.26
2023-05-21T22:36:51.188Z,42.49
2023-05-21T22:39:18.434Z,42.74
2023-05-21T22:41:45.618Z,42.36
2023-05-21T22:44:12.922Z,42.79
2023-05-21T22:46:40.367Z,42.74
2023-05-21T22:49:07.589Z,42.47
2023-05-21T22:51:36.095Z,42.69
2023-05-21T22:54:03.439Z,42.67
2023-05-21T22:56:30.602Z,42.52
2023-05-21T22:58:57.698Z,42.68
2023-05-21T23:01:24.937Z,42.67
2023-05-21T23:03:52.141Z,42.51
2023-05-21T23:06:19.273Z,42.42
2023-05-21T23:08:47.743Z,42.63
2023-05-21T23:11:14.901Z,42.48
2023-05-21T23:13:42.016Z,42.64
2023-05-21T23:16:09.210Z,42.27
2023-05-21T23:18:36.389Z,42.62
2023-05-21T23:21:03.635Z,42.66
2023-05-21T23:23:30.860Z,42.61
2023-05-21T23:25:59.360Z,42.68
2023-05-21T23:28:26.631Z,42.92
2023-05-21T23:30:53.791Z,43.02
2023-05-21T23:33:20.929Z,43.01
2023-05-21T23:35:48.203Z,42.89
2023-05-21T23:38:15.377Z,42.66
2023-05-21T23:40:42.544Z,42.63
2023-05-21T23:43:11.129Z,42.89
2023-05-21T23:45:38.345Z,42.38
2023-05-21T23:48:06.349Z,42.44
2023-05-21T23:50:33.553Z,42.49
2023-05-21T23:53:00.742Z,42.42
2023-05-21T23:55:27.920Z,42.67
2023-05-21T23:57:55.025Z,42.73
